Time;durP1;ratioP1;P1;durP2;ratioP2;P2;SDS_P1;SDS_P2;PMS_P1;PMS_P2;Temp;Humidity;BMP_temperature;BMP_pressure;BME280_temperature;BME280_humidity;BME280_pressure;Samples;Min_cycle;Max_cycle;Signal;HPM_P1;HPM_P2
2024/01/30 00:01:40;;;;;;;11.57;6.53;;;9.20;95.20;;;;;;5033120;28;20107;-79
2024/01/30 00:04:05;;;;;;;12.47;7.00;;;9.20;95.20;;;;;;5033183;28;20030;-79
2024/01/30 00:06:31;;;;;;;12.30;7.13;;;9.20;95.20;;;;;;5032662;28;20025;-79
2024/01/30 00:08:57;;;;;;;11.50;6.87;;;9.20;95.20;;;;;;5033348;28;20060;-79
2024/01/30 00:11:23;;;;;;;15.27;7.40;;;9.10;95.30;;;;;;5032898;28;20472;-79
2024/01/30 00:13:48;;;;;;;11.50;6.50;;;9.10;95.30;;;;;;5031881;28;20025;-79
2024/01/30 00:16:26;;;;;;;12.47;6.77;;;9.10;95.50;;;;;;5033112;28;20029;-79
2024/01/30 00:18:53;;;;;;;12.97;6.90;;;9.10;95.40;;;;;;5032754;28;20033;-78
2024/01/30 00:21:19;;;;;;;11.87;7.13;;;9.00;95.50;;;;;;5032849;28;20040;-79
2024/01/30 00:23:44;;;;;;;15.90;7.17;;;9.10;95.60;;;;;;5032896;28;20040;-80
2024/01/30 00:26:11;;;;;;;9.47;5.73;;;9.10;95.50;;;;;;5032904;28;20029;-79
2024/01/30 00:28:37;;;;;;;11.20;6.80;;;9.00;95.70;;;;;;5032845;28;20049;-79
2024/01/30 00:31:03;;;;;;;10.90;6.23;;;9.00;95.60;;;;;;5032955;28;20017;-79
2024/01/30 00:33:29;;;;;;;10.40;5.87;;;9.00;95.60;;;;;;5031498;28;20454;-79
2024/01/30 00:35:54;;;;;;;14.20;6.57;;;9.00;95.70;;;;;;5031244;28;20041;-79
2024/01/30 00:38:21;;;;;;;10.53;6.30;;;9.00;95.80;;;;;;5031707;28;20111;-79
2024/01/30 00:40:47;;;;;;;13.27;6.20;;;9.00;95.80;;;;;;5032575;28;20025;-79
2024/01/30 00:43:12;;;;;;;13.93;7.20;;;9.00;96.10;;;;;;5033001;28;20512;-79
2024/01/30 00:45:38;;;;;;;13.47;6.57;;;8.90;95.80;;;;;;5032833;28;20484;-79
2024/01/30 00:48:04;;;;;;;10.57;6.10;;;8.90;95.80;;;;;;5031102;28;20431;-79
2024/01/30 00:50:30;;;;;;;10.70;6.23;;;8.90;95.80;;;;;;5032205;28;20088;-79
2024/01/30 00:52:55;;;;;;;11.00;7.20;;;8.90;95.90;;;;;;5032649;28;20029;-79
2024/01/30 00:55:21;;;;;;;13.53;6.57;;;8.90;95.90;;;;;;5031413;28;20496;-79
2024/01/30 00:57:47;;;;;;;10.63;6.37;;;8.90;96.00;;;;;;5034021;28;20017;-79
2024/01/30 01:00:16;;;;;;;11.77;7.00;;;8.90;96.00;;;;;;5034892;28;20060;-79
2024/01/30 01:02:42;;;;;;;10.07;6.43;;;8.90;96.10;;;;;;5036277;28;20033;-79
2024/01/30 01:05:08;;;;;;;11.10;6.73;;;8.90;96.10;;;;;;5034802;28;20388;-79
2024/01/30 01:07:34;;;;;;;12.53;6.57;;;8.90;96.20;;;;;;5036241;28;20022;-79
2024/01/30 01:09:59;;;;;;;12.03;6.17;;;8.80;96.20;;;;;;5036216;28;20025;-79
2024/01/30 01:12:25;;;;;;;11.37;5.73;;;8.80;96.30;;;;;;5035855;28;20033;-78
2024/01/30 01:14:51;;;;;;;12.43;6.23;;;8.80;96.30;;;;;;5036054;28;20053;-78
2024/01/30 01:17:18;;;;;;;9.47;5.93;;;8.90;96.30;;;;;;5034818;28;20013;-79
2024/01/30 01:19:44;;;;;;;10.50;6.10;;;8.90;96.40;;;;;;5036083;28;20079;-79
2024/01/30 01:22:10;;;;;;;13.53;6.80;;;8.80;96.40;;;;;;5034663;28;20026;-79
2024/01/30 01:24:36;;;;;;;11.00;6.73;;;8.80;96.40;;;;;;5035896;28;20041;-79
2024/01/30 01:27:02;;;;;;;13.57;6.87;;;8.90;96.40;;;;;;5036520;28;20026;-79
2024/01/30 01:29:31;;;;;;;12.33;6.57;;;8.80;96.40;;;;;;5036115;28;20032;-79
2024/01/30 01:31:57;;;;;;;12.10;6.90;;;8.80;96.40;;;;;;5035886;28;20124;-79
2024/01/30 01:34:23;;;;;;;13.13;6.60;;;8.80;96.50;;;;;;5035689;28;20025;-79
2024/01/30 01:36:49;;;;;;;14.73;7.23;;;8.80;96.50;;;;;;5035629;28;20057;-79
2024/01/30 01:39:15;;;;;;;14.10;7.10;;;8.80;96.50;;;;;;5035465;28;20454;-79
2024/01/30 01:41:41;;;;;;;11.17;6.20;;;8.80;96.60;;;;;;5035638;28;20075;-79
2024/01/30 01:44:07;;;;;;;13.07;7.37;;;8.80;96.70;;;;;;5035624;28;20057;-79
2024/01/30 01:46:34;;;;;;;11.13;7.10;;;8.80;96.70;;;;;;5035193;28;20053;-79
2024/01/30 01:49:02;;;;;;;12.87;6.80;;;8.80;96.70;;;;;;5035122;28;20075;-79
2024/01/30 01:51:29;;;;;;;12.07;6.07;;;8.80;96.70;;;;;;5035137;28;20129;-79
2024/01/30 01:53:56;;;;;;;13.57;6.93;;;8.80;96.70;;;;;;5034145;28;20069;-79
2024/01/30 01:56:23;;;;;;;10.23;6.40;;;8.80;96.70;;;;;;5034278;28;20116;-79
2024/01/30 01:58:51;;;;;;;10.83;6.40;;;8.80;96.70;;;;;;5035382;28;20485;-79
2024/01/30 02:01:19;;;;;;;12.10;6.50;;;8.80;96.70;;;;;;5035387;28;20032;-79
2024/01/30 02:03:46;;;;;;;11.97;6.60;;;8.80;96.80;;;;;;5033705;28;20025;-79
2024/01/30 02:06:16;;;;;;;10.77;6.23;;;8.80;96.80;;;;;;5035243;28;20057;-79
2024/01/30 02:08:43;;;;;;;13.40;7.43;;;8.80;96.80;;;;;;5033727;28;20036;-79
2024/01/30 02:11:12;;;;;;;10.80;6.77;;;8.80;96.80;;;;;;5034693;28;20636;-79
2024/01/30 02:13:38;;;;;;;14.30;7.03;;;8.80;96.90;;;;;;5033772;28;20022;-79
2024/01/30 02:16:04;;;;;;;13.77;6.83;;;8.80;96.90;;;;;;5034855;28;20036;-79
2024/01/30 02:18:30;;;;;;;12.77;6.80;;;8.80;96.80;;;;;;5033781;28;20473;-79
2024/01/30 02:21:01;;;;;;;12.73;7.33;;;8.80;96.90;;;;;;5034778;28;20091;-79
2024/01/30 02:23:27;;;;;;;10.90;7.17;;;8.80;97.00;;;;;;5034909;28;20053;-79
2024/01/30 02:25:53;;;;;;;12.57;7.30;;;8.80;96.90;;;;;;5034995;28;20053;-79
2024/01/30 02:28:19;;;;;;;13.30;8.13;;;8.80;97.00;;;;;;5034704;28;20392;-79
2024/01/30 02:30:46;;;;;;;14.57;7.53;;;8.80;96.90;;;;;;5034524;28;20058;-79
2024/01/30 02:33:12;;;;;;;11.90;7.27;;;8.80;96.90;;;;;;5034673;28;20477;-79
2024/01/30 02:35:39;;;;;;;11.33;6.03;;;8.80;96.90;;;;;;5033011;28;20489;-79
2024/01/30 02:38:04;;;;;;;12.93;6.60;;;8.80;96.90;;;;;;5033450;28;20029;-79
2024/01/30 02:40:31;;;;;;;14.70;7.60;;;8.80;96.90;;;;;;5034495;28;20096;-79
2024/01/30 02:42:59;;;;;;;13.57;6.90;;;8.80;96.90;;;;;;5033136;28;20057;-79
2024/01/30 02:45:24;;;;;;;10.67;6.40;;;8.80;96.90;;;;;;5034511;28;20017;-79
2024/01/30 02:47:50;;;;;;;11.20;6.37;;;8.80;96.90;;;;;;5034031;28;20036;-79
2024/01/30 02:50:16;;;;;;;11.90;6.53;;;8.70;96.90;;;;;;5034315;28;20341;-79
2024/01/30 02:52:43;;;;;;;11.03;6.40;;;8.70;96.90;;;;;;5032979;28;20120;-79
2024/01/30 02:55:09;;;;;;;10.40;6.50;;;8.70;96.90;;;;;;5034211;28;20112;-79
2024/01/30 02:57:35;;;;;;;12.53;7.10;;;8.70;97.00;;;;;;5033913;28;20033;-79
2024/01/30 03:00:01;;;;;;;11.93;7.10;;;8.70;97.00;;;;;;5034408;28;20033;-79
2024/01/30 03:02:26;;;;;;;11.47;7.73;;;8.80;97.10;;;;;;5034663;28;20104;-79
2024/01/30 03:04:52;;;;;;;11.93;6.47;;;8.70;97.10;;;;;;5034178;28;20032;-79
2024/01/30 03:07:18;;;;;;;10.97;6.73;;;8.80;97.20;;;;;;5034275;28;20026;-79
2024/01/30 03:09:44;;;;;;;13.33;7.00;;;8.80;97.10;;;;;;5033983;28;20018;-79
2024/01/30 03:12:10;;;;;;;12.37;7.33;;;8.70;97.10;;;;;;5033847;28;20056;-79
2024/01/30 03:14:35;;;;;;;9.80;6.03;;;8.80;97.20;;;;;;5033586;28;20026;-79
2024/01/30 03:17:01;;;;;;;14.20;6.77;;;8.70;97.20;;;;;;5032469;28;20104;-78
2024/01/30 03:19:27;;;;;;;12.60;6.63;;;8.70;97.20;;;;;;5033506;28;20030;-79
2024/01/30 03:21:53;;;;;;;12.40;6.63;;;8.80;97.20;;;;;;5032524;28;20063;-79
2024/01/30 03:24:19;;;;;;;11.40;6.97;;;8.80;97.20;;;;;;5033789;28;20550;-79
2024/01/30 03:26:44;;;;;;;11.80;6.77;;;8.70;97.20;;;;;;5033814;28;20034;-79
2024/01/30 03:29:10;;;;;;;11.60;6.77;;;8.80;97.20;;;;;;5033330;28;20048;-79
2024/01/30 03:31:36;;;;;;;11.33;6.87;;;8.70;97.20;;;;;;5032494;28;20100;-79
2024/01/30 03:34:02;;;;;;;10.77;6.23;;;8.70;97.20;;;;;;5033693;28;20029;-79
2024/01/30 03:36:28;;;;;;;11.53;6.83;;;8.70;97.20;;;;;;5033381;28;20056;-79
2024/01/30 03:38:53;;;;;;;11.47;6.40;;;8.70;97.20;;;;;;5033328;28;20030;-79
2024/01/30 03:41:19;;;;;;;12.13;6.60;;;8.70;97.20;;;;;;5033661;28;20025;-79
2024/01/30 03:43:45;;;;;;;11.50;6.80;;;8.70;97.20;;;;;;5033249;28;20083;-79
2024/01/30 03:46:12;;;;;;;11.60;6.93;;;8.70;97.30;;;;;;5033344;28;20033;-79
2024/01/30 03:48:38;;;;;;;12.33;6.77;;;8.70;97.30;;;;;;5031616;28;20048;-79
2024/01/30 03:51:04;;;;;;;11.77;6.90;;;8.70;97.30;;;;;;5033378;28;20056;-79
2024/01/30 03:53:30;;;;;;;12.60;6.77;;;8.70;97.30;;;;;;5033246;28;20025;-78
2024/01/30 03:55:55;;;;;;;11.07;6.50;;;8.70;97.20;;;;;;5033328;28;20025;-79
2024/01/30 03:58:21;;;;;;;10.87;6.40;;;8.70;97.30;;;;;;5032957;28;20472;-79
2024/01/30 04:00:47;;;;;;;12.43;6.80;;;8.60;97.20;;;;;;5033321;28;20021;-79
2024/01/30 04:03:14;;;;;;;11.00;6.63;;;8.60;97.10;;;;;;5033178;28;20374;-79
2024/01/30 04:05:40;;;;;;;11.73;6.53;;;8.60;97.20;;;;;;5033196;28;20439;-79
2024/01/30 04:08:06;;;;;;;10.80;6.30;;;8.60;97.20;;;;;;5032867;28;20088;-79
2024/01/30 04:10:31;;;;;;;11.40;6.50;;;8.50;97.10;;;;;;5033241;28;20083;-79
2024/01/30 04:12:57;;;;;;;10.63;6.07;;;8.40;97.20;;;;;;5033026;28;20029;-79
2024/01/30 04:15:22;;;;;;;11.97;6.70;;;8.50;97.30;;;;;;5033224;28;20507;-79
2024/01/30 04:17:48;;;;;;;12.63;6.63;;;8.50;97.30;;;;;;5033173;28;20057;-79
2024/01/30 04:20:17;;;;;;;11.87;6.43;;;8.40;97.20;;;;;;5031739;28;20032;-79
2024/01/30 04:22:46;;;;;;;12.83;6.53;;;8.40;97.30;;;;;;5033025;28;20476;-79
2024/01/30 04:25:15;;;;;;;12.83;6.73;;;8.40;97.30;;;;;;5031685;28;20429;-79
2024/01/30 04:27:41;;;;;;;12.93;7.80;;;8.40;97.40;;;;;;5032804;28;20025;-78
2024/01/30 04:30:07;;;;;;;10.67;6.27;;;8.40;97.50;;;;;;5032868;28;20097;-79
2024/01/30 04:32:33;;;;;;;11.60;7.03;;;8.40;97.50;;;;;;5036802;28;20025;-79
2024/01/30 04:34:59;;;;;;;10.70;6.47;;;8.40;97.60;;;;;;5036863;28;20056;-79
2024/01/30 04:37:25;;;;;;;13.57;6.83;;;8.50;97.70;;;;;;5036673;28;20511;-79
2024/01/30 04:39:51;;;;;;;11.97;7.27;;;8.40;97.70;;;;;;5037289;28;20029;-79
2024/01/30 04:42:17;;;;;;;12.70;7.23;;;8.50;97.80;;;;;;5035562;28;20457;-79
2024/01/30 04:44:43;;;;;;;11.40;6.33;;;8.50;97.80;;;;;;5036593;28;20079;-79
2024/01/30 04:47:11;;;;;;;13.20;6.60;;;8.50;97.80;;;;;;5036497;28;20021;-79
2024/01/30 04:49:36;;;;;;;12.80;6.70;;;8.60;97.90;;;;;;5036668;28;20538;-79
2024/01/30 04:52:02;;;;;;;12.33;6.53;;;8.60;97.90;;;;;;5036450;28;20112;-79
2024/01/30 04:54:28;;;;;;;12.13;6.50;;;8.70;98.00;;;;;;5036127;28;20070;-79
2024/01/30 04:56:53;;;;;;;13.77;6.40;;;8.70;98.00;;;;;;5036307;28;20391;-79
2024/01/30 04:59:19;;;;;;;10.33;6.83;;;8.70;98.00;;;;;;5036429;28;20384;-79
2024/01/30 05:01:45;;;;;;;12.90;6.90;;;8.70;98.00;;;;;;5036498;28;20025;-79
2024/01/30 05:04:11;;;;;;;12.93;6.83;;;8.80;98.00;;;;;;5036605;28;20457;-79
2024/01/30 05:06:37;;;;;;;15.43;6.43;;;8.80;98.00;;;;;;5035026;28;20026;-79
2024/01/30 05:09:04;;;;;;;10.53;6.33;;;8.80;98.00;;;;;;5036103;28;20041;-82
2024/01/30 05:11:30;;;;;;;11.37;5.67;;;8.80;98.00;;;;;;5036140;28;20439;-82
2024/01/30 05:13:56;;;;;;;11.33;6.60;;;8.80;98.10;;;;;;5036401;28;20101;-82
2024/01/30 05:16:22;;;;;;;13.17;6.20;;;8.90;98.10;;;;;;5036177;28;20485;-82
2024/01/30 05:18:47;;;;;;;11.30;7.30;;;8.90;98.10;;;;;;5036011;28;20032;-82
2024/01/30 05:21:13;;;;;;;10.77;6.57;;;8.90;98.10;;;;;;5034687;28;20112;-82
2024/01/30 05:23:40;;;;;;;10.47;6.03;;;8.90;98.10;;;;;;5036015;28;20029;-82
2024/01/30 05:26:05;;;;;;;11.77;6.60;;;8.90;98.10;;;;;;5033995;28;20032;-82
2024/01/30 05:28:32;;;;;;;12.43;6.10;;;8.90;98.10;;;;;;5023624;28;20108;-82
2024/01/30 05:30:58;;;;;;;10.57;6.13;;;9.00;98.20;;;;;;5027291;28;20033;-82
2024/01/30 05:33:23;;;;;;;10.73;6.13;;;9.00;98.20;;;;;;5025392;28;20025;-81
2024/01/30 05:35:49;;;;;;;12.53;6.80;;;9.00;98.30;;;;;;5033987;28;20049;-82
2024/01/30 05:38:18;;;;;;;13.10;6.43;;;9.00;98.30;;;;;;5034149;28;20029;-82
2024/01/30 05:40:43;;;;;;;11.27;6.30;;;9.10;98.30;;;;;;5034207;28;20014;-82
2024/01/30 05:43:09;;;;;;;13.63;6.53;;;9.10;98.30;;;;;;5033976;28;20025;-82
2024/01/30 05:45:35;;;;;;;10.57;6.43;;;9.10;98.30;;;;;;5035448;28;20072;-82
2024/01/30 05:48:03;;;;;;;11.83;6.53;;;9.10;98.30;;;;;;5034114;28;20432;-81
2024/01/30 05:50:28;;;;;;;12.33;6.07;;;9.10;98.30;;;;;;5035396;28;20388;-83
2024/01/30 05:52:54;;;;;;;10.90;6.03;;;9.10;98.30;;;;;;5035287;28;20017;-83
2024/01/30 05:55:20;;;;;;;10.43;5.93;;;9.10;98.30;;;;;;5035224;28;20038;-83
2024/01/30 05:57:45;;;;;;;11.83;6.10;;;9.10;98.30;;;;;;5035465;28;20540;-83
2024/01/30 06:00:11;;;;;;;10.57;6.23;;;9.10;98.20;;;;;;5034195;28;20542;-83
2024/01/30 06:02:37;;;;;;;11.93;6.30;;;9.20;98.30;;;;;;5034085;28;20021;-83
2024/01/30 06:05:03;;;;;;;12.30;6.60;;;9.10;98.30;;;;;;5035063;28;20108;-82
2024/01/30 06:07:28;;;;;;;12.87;6.33;;;9.00;98.30;;;;;;5034841;28;20289;-83
2024/01/30 06:09:54;;;;;;;10.23;6.03;;;9.10;98.30;;;;;;5035648;28;20064;-84
2024/01/30 06:12:21;;;;;;;12.93;5.93;;;9.10;98.30;;;;;;5033960;28;20049;-84
2024/01/30 06:14:47;;;;;;;9.40;5.67;;;9.20;98.30;;;;;;5034291;28;20021;-82
2024/01/30 06:17:13;;;;;;;10.07;6.30;;;9.10;98.30;;;;;;5020787;28;20048;-81
2024/01/30 06:19:39;;;;;;;9.53;5.70;;;9.20;98.40;;;;;;5013743;28;20028;-82
2024/01/30 06:22:04;;;;;;;11.93;6.17;;;9.20;98.50;;;;;;5023588;28;20026;-83
2024/01/30 06:24:30;;;;;;;10.70;5.93;;;9.20;98.50;;;;;;5024921;28;20022;-83
2024/01/30 06:26:56;;;;;;;11.90;6.17;;;9.20;98.50;;;;;;5022930;28;20026;-83
2024/01/30 06:29:24;;;;;;;13.10;6.50;;;9.30;98.50;;;;;;5027722;28;20068;-83
2024/01/30 06:31:50;;;;;;;10.57;5.57;;;9.30;98.60;;;;;;5028143;28;20029;-83
2024/01/30 06:34:15;;;;;;;12.40;5.80;;;9.30;98.50;;;;;;5024761;28;20021;-83
2024/01/30 06:36:41;;;;;;;9.77;6.47;;;9.30;98.60;;;;;;5024232;28;20128;-83
2024/01/30 06:39:07;;;;;;;11.90;5.93;;;9.40;98.60;;;;;;5023021;28;20034;-84
2024/01/30 06:41:33;;;;;;;10.03;5.93;;;9.40;98.50;;;;;;5025121;28;20367;-84
2024/01/30 06:43:58;;;;;;;12.13;5.60;;;9.40;98.50;;;;;;5025513;28;20075;-83
2024/01/30 06:46:24;;;;;;;8.87;4.97;;;9.40;98.50;;;;;;5033695;28;20022;-83
2024/01/30 06:48:50;;;;;;;11.30;5.77;;;9.40;98.50;;;;;;5034664;28;20025;-83
2024/01/30 06:51:15;;;;;;;10.80;5.80;;;9.40;98.50;;;;;;5034309;28;20053;-84
2024/01/30 06:53:41;;;;;;;8.00;5.20;;;9.40;98.40;;;;;;5033823;28;20022;-84
2024/01/30 06:56:07;;;;;;;11.47;5.63;;;9.40;98.50;;;;;;5032648;28;20084;-84
2024/01/30 06:58:33;;;;;;;9.13;5.10;;;9.40;98.50;;;;;;5034356;28;20021;-83
2024/01/30 07:00:58;;;;;;;10.97;6.00;;;9.40;98.50;;;;;;5034323;28;20025;-84
2024/01/30 07:03:24;;;;;;;8.03;5.17;;;9.40;98.50;;;;;;5034274;28;20044;-84
2024/01/30 07:05:50;;;;;;;8.83;4.57;;;9.40;98.50;;;;;;5026177;28;20084;-84
2024/01/30 07:08:17;;;;;;;9.43;5.07;;;9.40;98.60;;;;;;5023505;28;20080;-84
2024/01/30 07:10:43;;;;;;;11.10;5.37;;;9.40;98.60;;;;;;5023504;28;20028;-83
2024/01/30 07:13:10;;;;;;;11.23;5.77;;;9.40;98.60;;;;;;5032199;28;20037;-83
2024/01/30 07:15:36;;;;;;;9.93;5.30;;;9.40;98.60;;;;;;5033477;28;20017;-83
2024/01/30 07:18:02;;;;;;;8.67;5.00;;;9.40;98.60;;;;;;5033660;28;20354;-83
2024/01/30 07:20:30;;;;;;;10.33;5.27;;;9.40;98.70;;;;;;5032702;28;20105;-82
2024/01/30 07:22:55;;;;;;;12.40;5.77;;;9.40;98.80;;;;;;5032023;28;20029;-84
2024/01/30 07:25:26;;;;;;;8.10;4.73;;;9.50;98.80;;;;;;5032084;28;20027;-84
2024/01/30 07:27:52;;;;;;;10.63;5.10;;;9.50;98.80;;;;;;5033661;28;20478;-84
2024/01/30 07:30:18;;;;;;;10.40;5.03;;;9.50;98.90;;;;;;5033453;28;20108;-84
2024/01/30 07:32:44;;;;;;;11.10;4.60;;;9.50;98.80;;;;;;5032220;28;20125;-83
2024/01/30 07:35:11;;;;;;;12.07;4.97;;;9.50;98.90;;;;;;5033606;28;20041;-84
2024/01/30 07:37:37;;;;;;;11.13;4.60;;;9.60;98.90;;;;;;5033410;28;20041;-82
2024/01/30 07:40:03;;;;;;;12.87;5.57;;;9.60;99.00;;;;;;5033566;28;20029;-81
2024/01/30 07:42:29;;;;;;;8.23;5.07;;;9.60;99.00;;;;;;5032250;28;20028;-83
2024/01/30 07:44:55;;;;;;;12.40;5.30;;;9.60;99.00;;;;;;5033633;28;20034;-82
2024/01/30 07:47:21;;;;;;;8.70;4.80;;;9.60;99.20;;;;;;5031748;28;20025;-82
2024/01/30 07:49:47;;;;;;;9.73;5.10;;;9.70;99.10;;;;;;5032424;28;20029;-83
2024/01/30 07:52:13;;;;;;;10.90;5.20;;;9.70;99.10;;;;;;5032015;28;20029;-83
2024/01/30 07:54:48;;;;;;;10.47;4.53;;;9.70;99.10;;;;;;5033296;28;20500;-83
2024/01/30 07:57:14;;;;;;;7.93;4.83;;;9.70;99.20;;;;;;5032864;28;20082;-82
2024/01/30 07:59:41;;;;;;;10.10;5.00;;;9.60;99.30;;;;;;5033273;28;20507;-82
2024/01/30 08:02:07;;;;;;;10.63;5.60;;;9.80;99.40;;;;;;5031868;28;20021;-83
2024/01/30 08:04:33;;;;;;;10.43;5.30;;;9.80;99.50;;;;;;5032733;28;20519;-83
2024/01/30 08:06:59;;;;;;;11.07;6.27;;;9.70;99.50;;;;;;5033244;28;20037;-83
2024/01/30 08:09:24;;;;;;;11.77;5.47;;;9.80;99.50;;;;;;5031894;28;20053;-82
2024/01/30 08:11:50;;;;;;;8.20;4.73;;;9.80;99.50;;;;;;5031635;28;20014;-83
2024/01/30 08:14:15;;;;;;;10.60;5.83;;;9.90;99.60;;;;;;5031459;28;20044;-83
2024/01/30 08:16:41;;;;;;;11.97;5.60;;;9.90;99.70;;;;;;5031804;28;20017;-82
2024/01/30 08:19:07;;;;;;;10.10;5.20;;;9.90;99.70;;;;;;5032979;28;20465;-83
2024/01/30 08:21:36;;;;;;;8.97;5.03;;;9.90;99.70;;;;;;5031348;28;20030;-83
2024/01/30 08:24:05;;;;;;;11.77;5.57;;;9.90;99.70;;;;;;5032858;28;20465;-82
2024/01/30 08:26:31;;;;;;;11.27;6.15;;;10.00;99.80;;;;;;5032922;28;20041;-83
2024/01/30 08:28:57;;;;;;;9.10;5.20;;;10.10;99.90;;;;;;5031599;28;20108;-83
2024/01/30 08:31:23;;;;;;;11.02;5.57;;;10.10;99.80;;;;;;5031323;28;20091;-83
2024/01/30 08:33:48;;;;;;;7.27;4.67;;;10.10;99.90;;;;;;5032673;28;20056;-83
2024/01/30 08:36:15;;;;;;;11.20;5.07;;;10.20;99.90;;;;;;5032657;28;20053;-83
2024/01/30 08:38:41;;;;;;;12.77;5.32;;;10.10;99.80;;;;;;5032681;28;20041;-82
2024/01/30 08:41:07;;;;;;;9.57;5.53;;;10.20;99.80;;;;;;5031455;28;20037;-83
2024/01/30 08:43:33;;;;;;;14.43;6.50;;;10.20;99.80;;;;;;5031823;28;20022;-84
2024/01/30 08:45:59;;;;;;;13.55;6.05;;;10.30;99.80;;;;;;5031617;28;20409;-83
2024/01/30 08:48:25;;;;;;;10.47;5.70;;;10.30;99.80;;;;;;5030724;28;20034;-83
2024/01/30 08:50:51;;;;;;;10.23;5.63;;;10.30;99.80;;;;;;5031481;28;20036;-83
2024/01/30 08:53:17;;;;;;;12.88;6.25;;;10.30;99.80;;;;;;5031363;28;20133;-84
2024/01/30 08:55:42;;;;;;;10.83;6.47;;;10.30;99.80;;;;;;5032519;28;20552;-83
2024/01/30 08:58:08;;;;;;;12.93;6.07;;;10.40;99.70;;;;;;5031159;28;20485;-83
2024/01/30 09:00:34;;;;;;;10.45;6.03;;;10.40;99.70;;;;;;5031648;28;20029;-83
2024/01/30 09:02:59;;;;;;;10.73;5.83;;;10.40;99.70;;;;;;5032437;28;20037;-83
2024/01/30 09:05:25;;;;;;;9.48;5.68;;;10.40;99.70;;;;;;5031409;28;20503;-83
2024/01/30 09:07:50;;;;;;;9.52;5.35;;;10.40;99.80;;;;;;5031344;28;20444;-83
2024/01/30 09:10:16;;;;;;;12.30;5.90;;;10.50;99.80;;;;;;5032351;28;20022;-83
2024/01/30 09:12:42;;;;;;;12.43;6.23;;;10.50;99.80;;;;;;5032501;28;20037;-84
2024/01/30 09:15:08;;;;;;;9.77;5.55;;;10.50;99.80;;;;;;5032568;28;20082;-83
2024/01/30 09:17:33;;;;;;;12.02;6.28;;;10.50;99.70;;;;;;5033032;28;20022;-83
2024/01/30 09:19:59;;;;;;;11.00;6.18;;;10.50;99.70;;;;;;5034905;28;20025;-83
2024/01/30 09:22:25;;;;;;;11.00;5.53;;;10.60;99.70;;;;;;5034731;28;20116;-83
2024/01/30 09:24:51;;;;;;;12.20;5.90;;;10.60;99.90;;;;;;5035097;28;20026;-83
2024/01/30 09:27:16;;;;;;;11.02;6.10;;;10.60;99.80;;;;;;5036060;28;20030;-83
2024/01/30 09:29:42;;;;;;;12.00;5.95;;;10.70;99.80;;;;;;5034740;28;20564;-83
2024/01/30 09:32:08;;;;;;;12.13;5.68;;;10.70;99.70;;;;;;5035277;28;20108;-83
2024/01/30 09:34:34;;;;;;;10.77;5.38;;;10.70;99.70;;;;;;5035711;28;20049;-83
2024/01/30 09:37:00;;;;;;;12.82;6.25;;;10.80;99.70;;;;;;5035546;28;20053;-82
2024/01/30 09:39:26;;;;;;;11.40;6.07;;;10.80;99.70;;;;;;5035494;28;20026;-83
2024/01/30 09:42:19;;;;;;;10.25;6.18;;;10.80;99.70;;;;;;5034515;28;20103;-83
2024/01/30 09:44:50;;;;;;;11.63;5.82;;;10.80;99.70;;;;;;5034453;28;20021;-83
2024/01/30 09:47:17;;;;;;;11.38;5.10;;;10.80;99.70;;;;;;5035416;28;20029;-82
2024/01/30 09:49:43;;;;;;;12.80;6.88;;;10.90;99.60;;;;;;5034681;28;20021;-83
2024/01/30 09:52:09;;;;;;;14.15;6.03;;;10.90;99.70;;;;;;5035203;28;20037;-83
2024/01/30 09:54:35;;;;;;;11.55;6.10;;;10.90;99.80;;;;;;5035562;28;20385;-83
2024/01/30 09:57:01;;;;;;;12.15;6.68;;;10.90;99.80;;;;;;5035900;28;20021;-83
2024/01/30 09:59:27;;;;;;;9.57;5.88;;;10.90;99.90;;;;;;5035267;28;20030;-84
2024/01/30 10:01:52;;;;;;;10.15;6.07;;;11.00;99.90;;;;;;5035052;28;20036;-82
2024/01/30 10:04:18;;;;;;;11.82;6.43;;;11.00;99.90;;;;;;5035565;28;20108;-83
2024/01/30 10:06:44;;;;;;;12.18;5.00;;;11.00;99.90;;;;;;5035538;28;20508;-83
2024/01/30 10:09:09;;;;;;;14.02;5.95;;;11.00;99.90;;;;;;5035111;28;20055;-83
2024/01/30 10:11:36;;;;;;;9.82;5.05;;;11.10;99.90;;;;;;5034768;28;20434;-83
2024/01/30 10:14:02;;;;;;;10.80;5.57;;;11.10;99.90;;;;;;5035332;28;20033;-83
2024/01/30 10:16:28;;;;;;;10.38;5.55;;;11.10;99.90;;;;;;5033816;28;20017;-83
2024/01/30 10:18:54;;;;;;;13.20;6.15;;;11.20;99.90;;;;;;5034963;28;20381;-83
2024/01/30 10:21:19;;;;;;;12.82;5.93;;;11.30;99.90;;;;;;5035390;28;20037;-83
2024/01/30 10:23:45;;;;;;;13.20;6.32;;;11.30;99.90;;;;;;5033691;28;20045;-83
2024/01/30 10:26:11;;;;;;;13.32;6.07;;;11.30;99.90;;;;;;5035017;28;20045;-83
2024/01/30 10:28:36;;;;;;;14.07;6.00;;;11.30;99.90;;;;;;5033024;28;20112;-83
2024/01/30 10:31:05;;;;;;;11.15;6.63;;;11.30;99.90;;;;;;5034622;28;20029;-82
2024/01/30 10:33:31;;;;;;;15.75;6.90;;;11.40;99.90;;;;;;5034548;28;20476;-83
2024/01/30 10:36:02;;;;;;;13.93;7.10;;;11.40;99.90;;;;;;5033297;28;20042;-82
2024/01/30 10:38:30;;;;;;;12.88;5.90;;;11.50;99.90;;;;;;5033468;28;20535;-83
2024/01/30 10:41:00;;;;;;;14.27;6.85;;;11.40;99.90;;;;;;5033354;28;20029;-81
2024/01/30 10:43:35;;;;;;;15.27;7.43;;;11.50;99.90;;;;;;5034163;28;20026;-83
2024/01/30 10:46:17;;;;;;;15.35;7.18;;;11.60;99.90;;;;;;5032919;28;20026;-82
2024/01/30 10:48:46;;;;;;;11.38;6.72;;;11.60;99.90;;;;;;5034145;28;20024;-82
2024/01/30 10:51:14;;;;;;;12.57;6.93;;;11.70;99.90;;;;;;5034305;28;20033;-82
2024/01/30 10:53:41;;;;;;;11.48;6.20;;;11.70;99.90;;;;;;5034092;28;20025;-83
2024/01/30 10:56:08;;;;;;;14.75;6.55;;;11.70;99.90;;;;;;5032937;28;20025;-83
2024/01/30 10:58:33;;;;;;;11.15;6.43;;;11.80;99.90;;;;;;5034260;28;20067;-81
2024/01/30 11:00:59;;;;;;;11.77;6.22;;;11.80;99.90;;;;;;5034116;28;20021;-82
2024/01/30 11:03:26;;;;;;;13.70;6.28;;;11.90;99.90;;;;;;5033973;28;20024;-83
2024/01/30 11:05:52;;;;;;;12.38;6.50;;;11.80;99.90;;;;;;5034077;28;20025;-83
2024/01/30 11:08:28;;;;;;;13.27;6.80;;;11.90;99.80;;;;;;5034083;28;20018;-82
2024/01/30 11:10:58;;;;;;;16.10;7.15;;;11.90;99.80;;;;;;5033897;28;20026;-82
2024/01/30 11:13:32;;;;;;;14.02;6.72;;;11.90;99.80;;;;;;5033269;28;20029;-83
2024/01/30 11:16:02;;;;;;;11.55;6.15;;;12.00;99.80;;;;;;5034054;28;20036;-82
2024/01/30 11:18:32;;;;;;;13.68;7.13;;;12.00;99.80;;;;;;5033846;28;20072;-83
2024/01/30 11:21:01;;;;;;;12.57;6.28;;;12.10;99.80;;;;;;5033773;28;20021;-83
2024/01/30 11:23:28;;;;;;;12.65;5.57;;;12.20;99.90;;;;;;5033699;28;20478;-82
2024/01/30 11:25:55;;;;;;;13.27;5.50;;;12.40;99.90;;;;;;5033519;28;20046;-83
2024/01/30 11:28:22;;;;;;;11.02;5.43;;;12.60;99.90;;;;;;5033542;28;20029;-83
2024/01/30 11:30:50;;;;;;;12.60;5.57;;;12.70;99.80;;;;;;5033724;28;20029;-82
2024/01/30 11:33:27;;;;;;;10.27;5.88;;;12.70;99.40;;;;;;5032043;28;20032;-83
2024/01/30 11:35:53;;;;;;;12.18;6.63;;;12.70;99.00;;;;;;5033355;28;20021;-82
2024/01/30 11:38:19;;;;;;;11.77;5.78;;;12.70;98.70;;;;;;5032277;28;20036;-82
2024/01/30 11:40:45;;;;;;;13.00;6.65;;;12.70;98.30;;;;;;5032356;28;20029;-83
2024/01/30 11:43:11;;;;;;;13.18;7.07;;;12.60;97.90;;;;;;5033155;28;20112;-82
2024/01/30 11:45:39;;;;;;;12.30;7.05;;;12.60;97.70;;;;;;5033527;28;20057;-81
2024/01/30 11:48:05;;;;;;;12.82;6.72;;;12.70;97.70;;;;;;5033026;28;20033;-82
2024/01/30 11:50:31;;;;;;;15.85;7.05;;;12.70;97.60;;;;;;5032149;28;20040;-82
2024/01/30 11:52:57;;;;;;;14.52;7.80;;;12.70;97.70;;;;;;5033021;28;20037;-82
2024/01/30 11:55:23;;;;;;;14.02;7.28;;;12.80;97.70;;;;;;5033377;28;20060;-82
2024/01/30 11:57:49;;;;;;;12.68;6.32;;;13.00;97.40;;;;;;5033172;28;20176;-82
2024/01/30 12:00:19;;;;;;;10.27;5.65;;;13.00;97.10;;;;;;5031616;28;20033;-82
2024/01/30 12:02:49;;;;;;;10.63;5.97;;;13.10;96.90;;;;;;5031870;28;20029;-83
2024/01/30 12:05:14;;;;;;;14.88;7.50;;;13.10;96.40;;;;;;5033070;28;20026;-82
2024/01/30 12:07:40;;;;;;;12.13;6.13;;;13.00;95.90;;;;;;5033156;28;20056;-83
2024/01/30 12:10:09;;;;;;;15.70;5.82;;;13.00;95.90;;;;;;5031798;28;20543;-82
2024/01/30 12:12:35;;;;;;;9.13;5.35;;;13.00;95.90;;;;;;5031387;28;20030;-82
2024/01/30 12:15:01;;;;;;;10.15;5.95;;;13.00;95.80;;;;;;5032764;28;20041;-83
2024/01/30 12:17:30;;;;;;;12.48;5.80;;;13.00;95.60;;;;;;5033142;28;20167;-82
2024/01/30 12:20:25;;;;;;;12.85;6.18;;;13.00;95.50;;;;;;5031592;28;20105;-83
2024/01/30 12:22:51;;;;;;;10.73;5.78;;;13.00;95.30;;;;;;5022949;28;20094;-82
2024/01/30 12:25:18;;;;;;;10.35;5.57;;;13.00;95.20;;;;;;5031479;28;20057;-82
2024/01/30 12:27:46;;;;;;;11.60;4.93;;;13.00;94.90;;;;;;5032858;28;20030;-83
2024/01/30 12:30:13;;;;;;;9.13;4.78;;;13.10;94.90;;;;;;5031471;28;20049;-82
2024/01/30 12:32:42;;;;;;;11.68;4.70;;;13.20;95.00;;;;;;5031772;28;20486;-81
2024/01/30 12:35:16;;;;;;;6.43;4.00;;;13.50;94.60;;;;;;5033079;28;20075;-83
2024/01/30 12:37:43;;;;;;;;;;;14.00;94.60;;;;;;5031900;28;20049;-86
2024/01/30 12:40:09;;;;;;;7.60;2.55;;;14.40;92.60;;;;;;5033059;28;19909;-84
2024/01/30 12:42:35;;;;;;;7.25;2.05;;;14.50;90.80;;;;;;5031753;28;20026;-82